Terminal Aerodrome Forecast
Issued by NWS

Home | Current Version | Previous Version | Graphics & Text | Print | Product List | Glossary On
Versions: 1 2 3 4 5 6 7 8 9 10 11 12 13
000
FTUS45 KGGW 210500
TAFSDY
TAF
KSDY 210520Z 2106/2206 20007KT 6SM BR VCFG BKN150
     FM211200 21008KT 6SM BR VCFG SCT001 SCT150 WS010/27033KT
     FM211700 25014KT P6SM SCT200
     FM220100 26007KT P6SM SCT200
      AMD LTD TO CLD VIS AND WIND=

USA.gov is the U.S. government's official web portal to all federal, state and local government web resources and services.